createdAt,value
2022-12-20T00:03:18.352Z,31.88
2022-12-20T00:08:20.967Z,31.17
2022-12-20T00:13:24.779Z,36.70
2022-12-20T00:18:27.271Z,32.73
2022-12-20T00:23:30.618Z,31.15
2022-12-20T00:28:35.671Z,31.13
2022-12-20T00:33:39.914Z,34.63
2022-12-20T00:38:42.794Z,31.10
2022-12-20T00:43:47.264Z,31.95
2022-12-20T00:48:50.376Z,33.13
2022-12-20T00:53:53.265Z,32.28
2022-12-20T00:58:59.204Z,29.10
2022-12-20T01:04:02.178Z,30.27
2022-12-20T01:09:05.182Z,28.43
2022-12-20T01:14:13.609Z,30.75
2022-12-20T01:19:18.824Z,28.42
2022-12-20T01:24:21.526Z,28.90
2022-12-20T01:29:25.333Z,31.00
2022-12-20T01:34:27.829Z,31.33
2022-12-20T01:39:30.305Z,32.17
2022-12-20T01:44:55.593Z,32.42
2022-12-20T01:49:59.889Z,32.67
2022-12-20T01:55:08.067Z,30.23
2022-12-20T02:00:13.610Z,31.77
2022-12-20T02:05:17.589Z,33.75
2022-12-20T02:10:24.506Z,31.48
2022-12-20T02:15:39.283Z,32.20
2022-12-20T02:21:07.670Z,29.35
2022-12-20T02:26:30.442Z,32.22
2022-12-20T02:31:41.439Z,31.73
2022-12-20T02:36:44.005Z,35.22
2022-12-20T02:41:52.576Z,34.17
2022-12-20T02:46:59.521Z,33.33
2022-12-20T02:52:04.318Z,32.23
2022-12-20T02:57:13.021Z,33.20
2022-12-20T03:02:17.191Z,31.05
2022-12-20T03:07:22.242Z,31.03
2022-12-20T03:12:24.767Z,32.55
2022-12-20T03:17:28.673Z,35.47
2022-12-20T03:22:31.567Z,32.87
2022-12-20T03:27:34.420Z,35.97
2022-12-20T03:32:38.422Z,33.50
2022-12-20T03:37:40.924Z,31.77
2022-12-20T03:42:43.708Z,32.67
2022-12-20T03:47:47.605Z,34.00
2022-12-20T03:52:50.096Z,30.42
2022-12-20T03:57:52.586Z,30.70
2022-12-20T04:02:56.938Z,28.92
2022-12-20T04:08:00.788Z,30.30
2022-12-20T04:13:03.285Z,36.27
2022-12-20T04:18:07.140Z,31.45
2022-12-20T04:23:09.618Z,35.55
2022-12-20T04:28:12.173Z,33.63
2022-12-20T04:33:15.997Z,35.83
2022-12-20T04:38:18.703Z,30.73
2022-12-20T04:43:22.665Z,35.15
2022-12-20T04:53:50.696Z,31.90
2022-12-20T04:58:54.673Z,32.03
2022-12-20T05:03:58.562Z,32.13
2022-12-20T05:09:01.384Z,31.92
2022-12-20T05:14:03.889Z,34.58
2022-12-20T05:19:07.715Z,33.70
2022-12-20T05:24:28.394Z,32.33
2022-12-20T05:29:30.914Z,33.70
2022-12-20T05:34:34.776Z,29.52
2022-12-20T05:39:37.391Z,30.50
2022-12-20T05:44:39.882Z,31.33
2022-12-20T05:49:43.715Z,35.65
2022-12-20T05:54:46.195Z,31.57
2022-12-20T05:59:49.083Z,32.63
2022-12-20T06:04:52.882Z,33.03
2022-12-20T06:09:55.450Z,30.43
2022-12-20T06:14:57.920Z,31.57
2022-12-20T06:20:01.815Z,32.53
2022-12-20T06:25:04.842Z,33.17
2022-12-20T06:30:09.570Z,30.33
2022-12-20T06:35:14.293Z,30.67
2022-12-20T06:40:17.124Z,30.88
2022-12-20T06:45:19.835Z,32.17
2022-12-20T06:50:23.661Z,31.80
2022-12-20T06:55:26.285Z,29.90
2022-12-20T07:00:28.889Z,31.70
2022-12-20T07:05:32.706Z,33.90
2022-12-20T07:10:36.536Z,31.55
2022-12-20T07:15:39.106Z,30.50
2022-12-20T07:20:42.895Z,32.30
2022-12-20T07:25:45.921Z,35.75
2022-12-20T07:30:48.435Z,33.40
2022-12-20T07:35:54.750Z,31.93
2022-12-20T07:40:57.531Z,38.15
2022-12-20T07:46:00.294Z,35.22
2022-12-20T07:51:07.721Z,32.87
2022-12-20T07:56:11.448Z,35.53
2022-12-20T08:01:15.026Z,35.95
2022-12-20T08:06:19.926Z,39.30
2022-12-20T08:11:23.892Z,43.83
2022-12-20T08:16:26.816Z,40.80
2022-12-20T08:21:30.930Z,42.53
2022-12-20T08:26:38.468Z,43.40
2022-12-20T08:31:49.382Z,41.25
2022-12-20T08:36:54.436Z,42.05
2022-12-20T08:41:56.998Z,39.93
2022-12-20T08:46:59.471Z,48.13
2022-12-20T08:52:04.058Z,39.50
2022-12-20T08:57:06.528Z,44.05
2022-12-20T09:02:09.243Z,42.90
2022-12-20T09:07:13.552Z,42.67
2022-12-20T09:12:16.033Z,41.00
2022-12-20T09:17:18.539Z,39.23
2022-12-20T09:22:22.530Z,41.40
2022-12-20T09:27:25.109Z,42.28
2022-12-20T09:32:27.655Z,39.53
2022-12-20T09:37:32.660Z,39.50
2022-12-20T09:42:35.235Z,33.72
2022-12-20T09:47:39.157Z,43.60
2022-12-20T09:53:05.897Z,40.90
2022-12-20T09:58:21.418Z,40.47
2022-12-20T10:03:27.031Z,35.20
2022-12-20T10:08:46.359Z,35.27
2022-12-20T10:13:59.459Z,36.88
2022-12-20T10:19:14.714Z,32.00
2022-12-20T10:24:20.455Z,33.93
2022-12-20T10:29:23.127Z,35.30
2022-12-20T10:34:27.832Z,35.58
2022-12-20T10:39:44.040Z,35.80
2022-12-20T10:44:46.694Z,34.10
2022-12-20T10:49:49.361Z,33.03
2022-12-20T10:54:53.343Z,33.47
2022-12-20T10:59:58.297Z,31.73
2022-12-20T11:05:02.696Z,31.05
2022-12-20T11:10:21.929Z,31.48
2022-12-20T11:15:34.248Z,34.50
2022-12-20T11:20:43.598Z,33.17
2022-12-20T11:26:00.311Z,28.63
2022-12-20T11:31:10.743Z,26.98
2022-12-20T11:36:22.447Z,31.03
2022-12-20T11:41:33.050Z,29.80
2022-12-20T11:46:53.700Z,30.05
2022-12-20T11:52:05.933Z,31.93
2022-12-20T11:57:16.409Z,27.13
2022-12-20T12:02:24.970Z,27.83
2022-12-20T12:07:32.596Z,27.87
2022-12-20T12:12:43.507Z,25.07
2022-12-20T12:17:50.601Z,25.55
2022-12-20T12:23:01.804Z,25.33
2022-12-20T12:28:06.716Z,26.17
2022-12-20T12:33:23.998Z,23.00
2022-12-20T12:39:01.724Z,26.73
2022-12-20T12:44:31.490Z,20.53
2022-12-20T12:49:34.871Z,21.83
2022-12-20T12:54:40.359Z,24.40
2022-12-20T12:59:48.141Z,22.43
2022-12-20T13:04:56.132Z,22.97
2022-12-20T13:09:59.569Z,24.15
2022-12-20T13:15:04.356Z,24.65
2022-12-20T13:20:18.847Z,22.73
2022-12-20T13:25:30.888Z,23.60
2022-12-20T13:30:34.854Z,22.80
2022-12-20T13:36:04.275Z,20.97
2022-12-20T13:41:20.115Z,21.23
2022-12-20T13:46:28.752Z,21.98
2022-12-20T13:51:32.491Z,23.20
2022-12-20T13:56:42.648Z,24.27
2022-12-20T14:01:51.644Z,26.27
2022-12-20T14:06:58.086Z,27.92
2022-12-20T14:12:06.156Z,23.83
2022-12-20T14:17:26.748Z,25.10
2022-12-20T14:22:29.439Z,24.92
2022-12-20T14:27:36.953Z,23.37
2022-12-20T14:32:40.805Z,21.48
2022-12-20T14:37:54.123Z,23.80
2022-12-20T14:42:57.700Z,20.20
2022-12-20T14:48:04.415Z,23.60
2022-12-20T14:53:20.034Z,22.88
2022-12-20T14:58:28.088Z,23.98
2022-12-20T15:03:31.980Z,22.60
2022-12-20T15:08:38.324Z,21.38
2022-12-20T15:13:43.044Z,21.85
2022-12-20T15:18:46.975Z,21.70
2022-12-20T15:23:51.542Z,21.00
2022-12-20T15:28:54.799Z,22.83
2022-12-20T15:33:58.755Z,20.73
2022-12-20T15:39:16.659Z,22.13
2022-12-20T15:44:21.803Z,22.40
2022-12-20T15:49:28.461Z,22.92
2022-12-20T15:54:33.641Z,22.10
2022-12-20T16:05:01.473Z,50.17
2022-12-20T16:10:04.446Z,75.57
2022-12-20T16:15:12.514Z,207.85
2022-12-20T16:20:16.635Z,140.73
2022-12-20T16:25:26.987Z,116.43
2022-12-20T16:30:30.468Z,184.47
2022-12-20T16:35:37.278Z,107.65
2022-12-20T16:40:39.851Z,113.82
2022-12-20T16:45:42.567Z,271.77
2022-12-20T16:50:46.388Z,156.80
2022-12-20T16:56:06.518Z,115.90
2022-12-20T17:01:16.950Z,315.30
2022-12-20T17:06:21.045Z,142.15
2022-12-20T17:11:26.543Z,88.43
2022-12-20T17:16:29.508Z,70.97
2022-12-20T17:26:56.635Z,219.40
2022-12-20T17:31:59.154Z,64.18
2022-12-20T17:37:03.086Z,176.67
2022-12-20T17:42:06.075Z,122.20
2022-12-20T17:47:09.092Z,88.88
2022-12-20T17:52:15.437Z,131.93
2022-12-20T17:57:18.100Z,75.68
2022-12-20T18:02:22.720Z,78.80
2022-12-20T18:07:26.815Z,140.40
2022-12-20T18:12:35.600Z,255.23
2022-12-20T18:17:42.129Z,175.55
2022-12-20T18:22:52.816Z,216.05
2022-12-20T18:28:00.209Z,223.23
2022-12-20T18:33:02.728Z,125.20
2022-12-20T18:38:06.752Z,149.05
2022-12-20T18:43:09.294Z,27.13
2022-12-20T18:48:11.867Z,111.45
2022-12-20T18:53:15.725Z,34.88
2022-12-20T18:58:18.242Z,79.97
2022-12-20T19:03:20.859Z,178.60
2022-12-20T19:08:26.056Z,141.20
2022-12-20T19:13:28.669Z,178.32
2022-12-20T19:18:31.657Z,198.43
2022-12-20T19:23:36.946Z,225.57
2022-12-20T19:28:40.673Z,101.65
2022-12-20T19:33:45.571Z,61.20
2022-12-20T19:38:51.549Z,35.17
2022-12-20T19:43:54.303Z,48.17
2022-12-20T19:48:57.139Z,68.87
2022-12-20T19:54:01.406Z,62.03
2022-12-20T19:59:04.662Z,53.83
2022-12-20T20:04:09.893Z,35.95
2022-12-20T20:09:13.870Z,26.90
2022-12-20T20:14:16.397Z,78.50
2022-12-20T20:19:19.194Z,37.63
2022-12-20T20:24:23.083Z,56.37
2022-12-20T20:29:25.556Z,35.75
2022-12-20T20:34:28.316Z,49.58
2022-12-20T20:39:32.206Z,31.70
2022-12-20T20:44:34.718Z,25.90
2022-12-20T20:49:37.246Z,24.73
2022-12-20T20:54:41.123Z,27.90
2022-12-20T20:59:44.273Z,31.87
2022-12-20T21:05:14.447Z,34.17
2022-12-20T21:10:11.186Z,31.73
2022-12-20T21:15:23.337Z,33.70
2022-12-20T21:20:26.762Z,36.80
2022-12-20T21:25:30.619Z,33.47
2022-12-20T21:30:33.215Z,31.90
2022-12-20T21:35:35.742Z,30.63
2022-12-20T21:40:39.563Z,33.35
2022-12-20T21:45:42.063Z,28.67
2022-12-20T21:50:44.581Z,28.23
2022-12-20T21:55:48.410Z,32.90
2022-12-20T22:00:54.874Z,27.98
2022-12-20T22:05:57.924Z,31.50
2022-12-20T22:11:02.758Z,32.05
2022-12-20T22:16:06.674Z,30.67
2022-12-20T22:21:11.488Z,33.93
2022-12-20T22:26:16.954Z,33.63
2022-12-20T22:31:20.137Z,35.45
2022-12-20T22:36:23.029Z,34.45
2022-12-20T22:41:28.991Z,32.00
2022-12-20T22:46:33.163Z,33.08
2022-12-20T22:51:35.718Z,31.85
2022-12-20T22:56:39.545Z,32.30
2022-12-20T23:01:42.098Z,30.90
2022-12-20T23:06:44.779Z,33.67
2022-12-20T23:12:06.381Z,33.00
2022-12-20T23:17:10.689Z,30.63
2022-12-20T23:22:30.867Z,32.65
2022-12-20T23:27:35.273Z,30.85
2022-12-20T23:32:38.239Z,32.60
2022-12-20T23:37:41.168Z,27.48
2022-12-20T23:42:45.423Z,28.77
2022-12-20T23:47:47.911Z,26.70
2022-12-20T23:52:50.394Z,29.50
2022-12-20T23:57:54.424Z,27.60
